Time;durP1;ratioP1;P1;durP2;ratioP2;P2;SDS_P1;SDS_P2;PMS_P1;PMS_P2;Temp;Humidity;BMP_temperature;BMP_pressure;BME280_temperature;BME280_humidity;BME280_pressure;Samples;Min_cycle;Max_cycle;Signal;HPM_P1;HPM_P2
2022/09/26 00:01:58;;;;;;;;;;;;;;;12.62;100.00;99855.69;10538736;28;19928;-69
2022/09/26 00:07:01;;;;;;;;;;;;;;;12.55;100.00;99854.13;10538222;28;20383;-67
2022/09/26 00:12:06;;;;;;;;;;;;;;;12.58;100.00;99841.91;10537987;28;19928;-67
2022/09/26 00:17:09;;;;;;;;;;;;;;;12.64;100.00;99830.47;10536511;28;19934;-68
2022/09/26 00:22:12;;;;;;;;;;;;;;;12.53;100.00;99822.09;10536015;28;19938;-75
2022/09/26 00:27:18;;;;;;;;;;;;;;;12.56;100.00;99822.03;10571971;28;19924;-73
2022/09/26 00:32:21;;;;;;;;;;;;;;;12.60;100.00;99816.69;10577937;28;20272;-71
2022/09/26 00:37:24;;;;;;;;;;;;;;;12.34;100.00;99818.25;10578123;28;19928;-68
2022/09/26 00:42:28;;;;;;;;;;;;;;;12.27;100.00;99814.97;10578210;28;19924;-65
2022/09/26 00:47:41;;;;;;;;;;;;;;;12.18;100.00;99809.16;10581768;28;19994;-67
2022/09/26 00:52:46;;;;;;;;;;;;;;;12.18;100.00;99822.16;10585591;28;20392;-70
2022/09/26 00:57:54;;;;;;;;;;;;;;;11.99;100.00;99829.56;10586585;28;19931;-65
2022/09/26 01:02:57;;;;;;;;;;;;;;;11.96;100.00;99824.41;10585984;28;19928;-68
2022/09/26 01:08:00;;;;;;;;;;;;;;;11.95;100.00;99822.72;10585200;28;19924;-72
2022/09/26 01:13:07;;;;;;;;;;;;;;;12.09;100.00;99819.78;10585271;28;19927;-72
2022/09/26 01:18:10;;;;;;;;;;;;;;;12.10;100.00;99821.47;10584773;28;20272;-74
2022/09/26 01:23:27;;;;;;;;;;;;;;;11.98;100.00;99813.97;10582610;28;19927;-72
2022/09/26 01:28:42;;;;;;;;;;;;;;;11.98;100.00;99806.16;10543737;28;19935;-72
2022/09/26 01:33:51;;;;;;;;;;;;;;;12.03;100.00;99796.53;10544019;28;19938;-74
2022/09/26 01:39:00;;;;;;;;;;;;;;;11.96;100.00;99793.22;10542845;28;20400;-74
2022/09/26 01:44:08;;;;;;;;;;;;;;;12.00;100.00;99794.84;10542318;28;19935;-74
2022/09/26 01:49:16;;;;;;;;;;;;;;;11.78;100.00;99785.00;10541836;28;19932;-71
2022/09/26 01:54:21;;;;;;;;;;;;;;;11.82;100.00;99789.25;10540926;28;20565;-73
2022/09/26 01:59:26;;;;;;;;;;;;;;;11.77;100.00;99791.13;10540482;28;20376;-74
2022/09/26 02:04:34;;;;;;;;;;;;;;;11.81;100.00;99785.78;10540911;28;19932;-73
2022/09/26 02:09:40;;;;;;;;;;;;;;;11.74;100.00;99791.16;10540741;28;20023;-73
2022/09/26 02:14:44;;;;;;;;;;;;;;;11.55;100.00;99788.13;10541581;28;19938;-69
2022/09/26 02:19:52;;;;;;;;;;;;;;;11.50;100.00;99793.44;10540610;28;19928;-71
2022/09/26 02:24:55;;;;;;;;;;;;;;;11.52;100.00;99790.78;10556075;28;19927;-73
2022/09/26 02:29:58;;;;;;;;;;;;;;;11.38;100.00;99803.25;10564768;28;20339;-73
2022/09/26 02:35:53;;;;;;;;;;;;;;;11.27;100.00;99794.81;10582091;28;20345;-74
2022/09/26 02:40:41;;;;;;;;;;;;;;;11.24;100.00;99790.56;10581636;28;19928;-69
2022/09/26 02:45:47;;;;;;;;;;;;;;;11.26;100.00;99786.19;10581594;28;20310;-72
2022/09/26 02:51:02;;;;;;;;;;;;;;;11.21;100.00;99784.56;10581006;28;20380;-71
2022/09/26 02:56:13;;;;;;;;;;;;;;;11.35;100.00;99791.19;10583086;28;19930;-74
2022/09/26 03:01:18;;;;;;;;;;;;;;;11.33;100.00;99786.91;10585203;28;19932;-77
2022/09/26 03:06:25;;;;;;;;;;;;;;;11.25;100.00;99787.06;10586864;28;19924;-74
2022/09/26 03:11:28;;;;;;;;;;;;;;;11.21;100.00;99780.25;10586359;28;19934;-73
2022/09/26 03:16:34;;;;;;;;;;;;;;;11.18;100.00;99772.50;10586346;28;19934;-75
2022/09/26 03:21:39;;;;;;;;;;;;;;;10.91;100.00;99777.44;10586353;28;19927;-76
2022/09/26 03:26:42;;;;;;;;;;;;;;;10.75;100.00;99781.25;10585923;28;19984;-73
2022/09/26 03:31:45;;;;;;;;;;;;;;;10.70;100.00;99770.09;10585610;28;19923;-74
2022/09/26 03:36:50;;;;;;;;;;;;;;;10.81;100.00;99763.78;10585629;28;19963;-77
2022/09/26 03:41:54;;;;;;;;;;;;;;;10.86;100.00;99750.72;10585573;28;20003;-75
2022/09/26 03:46:57;;;;;;;;;;;;;;;10.85;100.00;99756.81;10585481;28;20075;-74
2022/09/26 03:52:01;;;;;;;;;;;;;;;10.52;100.00;99755.75;10585065;28;19992;-75
2022/09/26 03:57:04;;;;;;;;;;;;;;;10.73;100.00;99760.50;10585274;28;19924;-71
2022/09/26 04:02:08;;;;;;;;;;;;;;;10.71;100.00;99756.22;10584886;28;19934;-76
2022/09/26 04:07:13;;;;;;;;;;;;;;;10.67;100.00;99754.56;10585411;28;19934;-76
2022/09/26 04:12:16;;;;;;;;;;;;;;;10.72;100.00;99756.19;10585063;28;19931;-76
2022/09/26 04:17:19;;;;;;;;;;;;;;;10.69;100.00;99758.00;10567034;28;19991;-74
2022/09/26 04:22:24;;;;;;;;;;;;;;;10.57;100.00;99756.50;10589128;28;19935;-76
2022/09/26 04:27:27;;;;;;;;;;;;;;;10.34;100.00;99749.16;10592881;28;19923;-75
2022/09/26 04:32:30;;;;;;;;;;;;;;;10.33;100.00;99750.06;10575491;28;19954;-74
2022/09/26 04:37:35;;;;;;;;;;;;;;;10.33;100.00;99747.47;10594043;28;19924;-77
2022/09/26 04:42:40;;;;;;;;;;;;;;;10.40;100.00;99743.88;10592487;28;19923;-72
2022/09/26 04:47:43;;;;;;;;;;;;;;;10.33;100.00;99750.06;10592678;28;20258;-80
2022/09/26 04:52:47;;;;;;;;;;;;;;;10.39;100.00;99744.75;10591997;28;19923;-75
2022/09/26 04:57:50;;;;;;;;;;;;;;;10.34;100.00;99743.09;10592196;28;19950;-73
2022/09/26 05:02:54;;;;;;;;;;;;;;;10.37;100.00;99740.47;10591921;28;19970;-76
2022/09/26 05:07:58;;;;;;;;;;;;;;;10.29;100.00;99739.75;10591199;28;19934;-73
2022/09/26 05:13:02;;;;;;;;;;;;;;;10.14;100.00;99738.31;10591738;28;20031;-76
2022/09/26 05:18:06;;;;;;;;;;;;;;;10.17;100.00;99740.84;10588848;28;19934;-77
2022/09/26 05:23:10;;;;;;;;;;;;;;;10.23;100.00;99737.28;10588218;28;19963;-73
2022/09/26 05:28:14;;;;;;;;;;;;;;;10.23;100.00;99735.53;10588005;28;19952;-72
2022/09/26 05:33:18;;;;;;;;;;;;;;;10.24;100.00;99729.47;10587783;28;20336;-75
2022/09/26 05:38:22;;;;;;;;;;;;;;;10.27;100.00;99725.94;10587470;28;20006;-76
2022/09/26 05:43:26;;;;;;;;;;;;;;;10.23;100.00;99719.13;10587211;28;19924;-74
2022/09/26 05:48:30;;;;;;;;;;;;;;;10.22;100.00;99714.81;10587878;28;19946;-74
2022/09/26 05:53:34;;;;;;;;;;;;;;;10.41;100.00;99709.25;10586957;28;19935;-72
2022/09/26 05:58:38;;;;;;;;;;;;;;;10.53;100.00;99718.53;10587197;28;20006;-74
2022/09/26 06:03:42;;;;;;;;;;;;;;;10.53;100.00;99709.91;10587399;28;19924;-75
2022/09/26 06:08:48;;;;;;;;;;;;;;;10.38;100.00;99705.88;10587214;28;20384;-74
2022/09/26 06:13:51;;;;;;;;;;;;;;;10.65;100.00;99707.88;10586780;28;19966;-75
2022/09/26 06:18:54;;;;;;;;;;;;;;;10.62;100.00;99718.34;10526497;28;1741995;-74
2022/09/26 06:23:59;;;;;;;;;;;;;;;10.60;100.00;99717.50;10588410;28;19935;-73
2022/09/26 06:29:02;;;;;;;;;;;;;;;10.73;100.00;99720.72;10588168;28;19928;-76
2022/09/26 06:34:06;;;;;;;;;;;;;;;10.68;100.00;99714.78;10587851;28;20257;-73
2022/09/26 06:39:11;;;;;;;;;;;;;;;10.74;100.00;99714.63;10588262;28;19955;-80
2022/09/26 06:44:14;;;;;;;;;;;;;;;10.95;100.00;99717.63;10586686;28;20395;-75
2022/09/26 06:49:17;;;;;;;;;;;;;;;11.02;100.00;99711.41;10587724;28;19976;-73
2022/09/26 06:54:21;;;;;;;;;;;;;;;11.15;100.00;99720.63;10587175;28;19966;-71
2022/09/26 06:59:24;;;;;;;;;;;;;;;11.17;100.00;99718.84;10587442;28;19924;-73
2022/09/26 07:04:28;;;;;;;;;;;;;;;11.22;100.00;99719.59;10586599;28;20011;-72
2022/09/26 07:09:33;;;;;;;;;;;;;;;11.60;100.00;99724.75;10586209;28;19974;-72
2022/09/26 07:14:36;;;;;;;;;;;;;;;11.62;100.00;99719.50;10586319;28;20015;-70
2022/09/26 07:19:39;;;;;;;;;;;;;;;11.60;100.00;99719.56;10502519;28;20383;-72
2022/09/26 07:24:45;;;;;;;;;;;;;;;11.82;100.00;99719.06;10502297;28;19928;-73
2022/09/26 07:29:48;;;;;;;;;;;;;;;11.83;100.00;99716.41;10502547;28;19924;-72
2022/09/26 07:34:52;;;;;;;;;;;;;;;12.02;100.00;99729.78;10501289;28;20368;-75
2022/09/26 07:39:56;;;;;;;;;;;;;;;12.13;100.00;99712.16;10501284;28;20023;-75
2022/09/26 07:45:04;;;;;;;;;;;;;;;12.31;100.00;99722.06;10501102;28;20345;-77
2022/09/26 07:50:27;;;;;;;;;;;;;;;12.46;100.00;99726.84;10479700;28;20039;-77
2022/09/26 07:55:31;;;;;;;;;;;;;;;12.55;100.00;99716.16;10459809;28;19979;-76
2022/09/26 08:00:34;;;;;;;;;;;;;;;12.67;100.00;99715.81;10459303;28;19943;-75
2022/09/26 08:05:38;;;;;;;;;;;;;;;12.70;100.00;99715.75;10459362;28;19932;-77
2022/09/26 08:10:44;;;;;;;;;;;;;;;12.73;100.00;99718.25;10105110;28;9999859;-76
2022/09/26 08:15:47;;;;;;;;;;;;;;;12.89;100.00;99713.47;10471742;28;19935;-76
2022/09/26 08:20:51;;;;;;;;;;;;;;;13.14;100.00;99712.69;10536138;28;19924;-77
2022/09/26 08:25:55;;;;;;;;;;;;;;;13.39;100.00;99705.81;10536081;28;19928;-75
2022/09/26 08:31:04;;;;;;;;;;;;;;;13.49;100.00;99702.03;10536805;28;19924;-75
2022/09/26 08:36:08;;;;;;;;;;;;;;;13.58;100.00;99700.88;10538244;28;20280;-76
2022/09/26 08:41:21;;;;;;;;;;;;;;;13.72;100.00;99698.63;10537563;28;19924;-70
2022/09/26 08:46:41;;;;;;;;;;;;;;;13.82;100.00;99700.06;10536147;28;19924;-73
2022/09/26 08:51:47;;;;;;;;;;;;;;;13.91;100.00;99697.97;10535703;28;19924;-71
2022/09/26 08:56:55;;;;;;;;;;;;;;;14.16;100.00;99689.28;10535368;28;20332;-75
2022/09/26 09:02:01;;;;;;;;;;;;;;;14.13;100.00;99689.41;10535658;28;19928;-75
2022/09/26 09:07:07;;;;;;;;;;;;;;;14.14;100.00;99675.44;10544126;28;20101;-73
2022/09/26 09:12:15;;;;;;;;;;;;;;;14.32;100.00;99673.09;10585147;28;20348;-78
2022/09/26 09:17:30;;;;;;;;;;;;;;;14.46;100.00;99662.97;10542470;28;20374;-72
2022/09/26 09:22:54;;;;;;;;;;;;;;;14.71;100.00;99655.94;10543150;28;19924;-73
2022/09/26 09:28:09;;;;;;;;;;;;;;;14.80;100.00;99654.72;10538108;28;20102;-73
2022/09/26 09:33:14;;;;;;;;;;;;;;;15.06;100.00;99651.94;10542176;28;19928;-74
2022/09/26 09:38:19;;;;;;;;;;;;;;;15.36;100.00;99642.84;10542606;28;19924;-77
2022/09/26 09:43:28;;;;;;;;;;;;;;;15.77;100.00;99638.56;10542102;28;19924;-74
2022/09/26 09:48:31;;;;;;;;;;;;;;;16.20;100.00;99633.16;10541822;28;19928;-73
2022/09/26 09:53:42;;;;;;;;;;;;;;;16.51;100.00;99617.81;10541337;28;20366;-76
2022/09/26 09:58:54;;;;;;;;;;;;;;;17.10;100.00;99620.22;10541790;28;19928;-72
2022/09/26 10:04:02;;;;;;;;;;;;;;;17.46;100.00;99615.84;10540968;28;19934;-70
2022/09/26 10:09:19;;;;;;;;;;;;;;;17.78;100.00;99617.66;10542357;28;20063;-69
2022/09/26 10:14:46;;;;;;;;;;;;;;;18.11;99.21;99613.31;10542822;28;20352;-72
2022/09/26 10:19:49;;;;;;;;;;;;;;;18.54;97.63;99606.63;10540320;28;19928;-77
2022/09/26 10:24:53;;;;;;;;;;;;;;;18.84;93.88;99609.34;10540867;28;19924;-77
2022/09/26 10:29:58;;;;;;;;;;;;;;;19.25;90.72;99598.19;10540475;28;20230;-81
2022/09/26 10:35:07;;;;;;;;;;;;;;;19.55;88.45;99595.59;10541042;28;20341;-77
2022/09/26 10:45:42;;;;;;;;;;;;;;;20.22;83.32;99584.50;10540317;28;20351;-78
2022/09/26 10:50:49;;;;;;;;;;;;;;;19.92;83.17;99584.56;10540007;28;19932;-77
2022/09/26 10:55:56;;;;;;;;;;;;;;;19.98;81.26;99584.19;10539530;28;20031;-75
2022/09/26 11:01:02;;;;;;;;;;;;;;;20.68;77.28;99572.78;10539099;28;19928;-77
2022/09/26 11:06:05;;;;;;;;;;;;;;;21.31;72.21;99565.97;10538807;28;19923;-77
2022/09/26 11:11:14;;;;;;;;;;;;;;;20.97;68.04;99569.09;10542653;28;19928;-74
2022/09/26 11:16:19;;;;;;;;;;;;;;;21.50;65.18;99568.25;10538344;28;19935;-75
2022/09/26 11:21:25;;;;;;;;;;;;;;;22.28;63.30;99564.59;10538791;28;19966;-78
2022/09/26 11:26:34;;;;;;;;;;;;;;;22.89;59.61;99556.59;10538686;28;19967;-75
2022/09/26 11:31:42;;;;;;;;;;;;;;;23.19;59.02;99545.56;10537208;28;19928;-78
2022/09/26 11:37:02;;;;;;;;;;;;;;;23.03;60.44;99542.34;10538719;28;19932;-76
2022/09/26 11:42:13;;;;;;;;;;;;;;;23.08;60.00;99541.06;10538769;28;20031;-74
2022/09/26 11:47:35;;;;;;;;;;;;;;;23.71;57.94;99532.75;10538328;28;19947;-76
2022/09/26 11:52:44;;;;;;;;;;;;;;;24.23;56.77;99527.72;10540252;28;19970;-78
2022/09/26 11:57:57;;;;;;;;;;;;;;;23.50;56.74;99526.44;10520710;28;20310;-76
2022/09/26 12:03:10;;;;;;;;;;;;;;;24.45;53.93;99514.47;10537907;28;20348;-78
2022/09/26 12:08:22;;;;;;;;;;;;;;;24.88;51.11;99506.53;10552899;28;20026;-78
2022/09/26 12:13:31;;;;;;;;;;;;;;;25.00;48.57;99506.38;10579228;28;19989;-75
2022/09/26 12:18:38;;;;;;;;;;;;;;;25.21;48.73;99503.72;10578792;28;19943;-78
2022/09/26 12:23:47;;;;;;;;;;;;;;;25.55;48.38;99489.31;10579087;28;20018;-78
2022/09/26 12:28:58;;;;;;;;;;;;;;;26.00;48.13;99489.81;10581859;28;19923;-75
2022/09/26 12:34:11;;;;;;;;;;;;;;;25.74;48.33;99486.75;10584419;28;20341;-77
2022/09/26 12:39:27;;;;;;;;;;;;;;;25.37;48.98;99490.84;10584948;28;19972;-76
2022/09/26 12:44:46;;;;;;;;;;;;;;;23.65;52.73;99491.66;10589706;28;20324;-76
2022/09/26 12:50:06;;;;;;;;;;;;;;;22.61;55.36;99485.47;10592693;28;20259;-75
2022/09/26 12:55:19;;;;;;;;;;;;;;;23.68;53.06;99474.66;10556102;28;20365;-73
2022/09/26 13:00:22;;;;;;;;;;;;;;;24.14;51.73;99472.78;10549662;28;19931;-74
2022/09/26 13:05:37;;;;;;;;;;;;;;;23.05;53.38;99482.19;10549904;28;20375;-71
2022/09/26 13:10:50;;;;;;;;;;;;;;;22.77;54.64;99467.53;10549568;28;20024;-74
2022/09/26 13:16:02;;;;;;;;;;;;;;;23.12;54.25;99464.88;10548968;28;19931;-71
2022/09/26 13:21:07;;;;;;;;;;;;;;;23.16;54.13;99456.59;10548966;28;19947;-72
2022/09/26 13:26:14;;;;;;;;;;;;;;;22.89;55.01;99467.47;10549249;28;20023;-71
2022/09/26 13:31:20;;;;;;;;;;;;;;;22.58;56.13;99467.19;10548323;28;19928;-71
2022/09/26 13:36:25;;;;;;;;;;;;;;;22.71;55.58;99454.75;10506482;28;19968;-72
2022/09/26 13:41:37;;;;;;;;;;;;;;;22.67;56.14;99448.00;10506191;28;19932;-72
2022/09/26 13:46:46;;;;;;;;;;;;;;;22.32;56.17;99450.53;10506317;28;19924;-70
2022/09/26 13:51:53;;;;;;;;;;;;;;;21.91;56.86;99439.47;10506290;28;19956;-71
2022/09/26 13:56:57;;;;;;;;;;;;;;;21.84;57.60;99437.34;10505484;28;19946;-74
2022/09/26 14:02:16;;;;;;;;;;;;;;;21.53;57.83;99441.25;10505465;28;20261;-75
2022/09/26 14:13:07;;;;;;;;;;;;;;;20.79;59.47;99437.56;10505375;28;20015;-70
2022/09/26 14:18:22;;;;;;;;;;;;;;;20.51;59.99;99434.09;10504823;28;19964;-71
2022/09/26 14:23:41;;;;;;;;;;;;;;;20.19;61.00;99430.06;10505189;28;19963;-72
2022/09/26 14:28:53;;;;;;;;;;;;;;;19.94;62.38;99419.38;10504850;28;20015;-72
2022/09/26 14:34:05;;;;;;;;;;;;;;;19.79;63.35;99436.13;10504070;28;20023;-73
2022/09/26 14:39:22;;;;;;;;;;;;;;;19.60;64.49;99432.94;10503814;28;20360;-71
2022/09/26 14:44:28;;;;;;;;;;;;;;;19.44;65.06;99432.19;10503742;28;20015;-75
2022/09/26 14:49:38;;;;;;;;;;;;;;;19.35;66.44;99424.84;10503558;28;19928;-74
2022/09/26 14:54:42;;;;;;;;;;;;;;;19.22;67.16;99427.31;10503337;28;19931;-76
2022/09/26 14:59:47;;;;;;;;;;;;;;;19.04;68.26;99431.06;10503194;28;20007;-77
2022/09/26 15:04:59;;;;;;;;;;;;;;;18.89;70.32;99439.88;10502163;28;19963;-75
2022/09/26 15:10:04;;;;;;;;;;;;;;;18.74;71.80;99437.28;10502570;28;19925;-78
2022/09/26 15:15:16;;;;;;;;;;;;;;;18.66;72.13;99437.72;10502087;28;19977;-74
2022/09/26 15:20:21;;;;;;;;;;;;;;;18.52;72.28;99440.28;10502145;28;19935;-75
2022/09/26 15:25:30;;;;;;;;;;;;;;;18.50;72.45;99436.88;10502262;28;19928;-75
2022/09/26 15:30:36;;;;;;;;;;;;;;;18.41;72.92;99438.25;10502874;28;19924;-75
2022/09/26 15:35:39;;;;;;;;;;;;;;;18.36;73.34;99442.06;10184342;28;10000478;-74
2022/09/26 15:40:42;;;;;;;;;;;;;;;18.33;74.12;99442.22;10537363;28;20019;-75
2022/09/26 15:45:57;;;;;;;;;;;;;;;18.27;75.36;99439.94;10538919;28;20001;-75
2022/09/26 15:51:04;;;;;;;;;;;;;;;18.17;76.50;99444.03;10538792;28;20015;-75
2022/09/26 15:56:09;;;;;;;;;;;;;;;18.12;77.17;99441.63;10537946;28;19928;-76
2022/09/26 16:01:16;;;;;;;;;;;;;;;18.06;78.49;99439.38;10537698;28;20355;-75
2022/09/26 16:06:23;;;;;;;;;;;;;;;17.98;79.68;99446.78;10536773;28;19939;-78
2022/09/26 16:11:27;;;;;;;;;;;;;;;17.94;79.85;99436.56;10536603;28;19928;-78
2022/09/26 16:16:34;;;;;;;;;;;;;;;17.87;81.05;99440.44;10539229;28;19928;-76
2022/09/26 16:21:39;;;;;;;;;;;;;;;17.76;81.44;99441.03;10545919;28;19935;-78
2022/09/26 16:26:52;;;;;;;;;;;;;;;17.71;82.31;99436.94;10545183;28;19981;-78
2022/09/26 16:31:58;;;;;;;;;;;;;;;17.65;83.38;99432.03;10552280;28;19927;-77
2022/09/26 16:37:01;;;;;;;;;;;;;;;17.57;84.31;99434.22;10588318;28;19967;-79
2022/09/26 16:42:12;;;;;;;;;;;;;;;17.38;84.36;99430.84;10587761;28;19966;-66
2022/09/26 16:47:30;;;;;;;;;;;;;;;17.42;84.49;99437.59;10586632;28;20030;-77
2022/09/26 16:52:37;;;;;;;;;;;;;;;17.36;84.08;99438.78;10586624;28;19935;-77
2022/09/26 16:57:45;;;;;;;;;;;;;;;17.30;83.47;99439.97;10586679;28;19939;-76
2022/09/26 17:02:48;;;;;;;;;;;;;;;17.22;82.85;99436.03;10586104;28;20050;-78
2022/09/26 17:07:53;;;;;;;;;;;;;;;17.17;82.57;99432.81;10585391;28;19938;-78
2022/09/26 17:13:01;;;;;;;;;;;;;;;17.06;82.47;99435.13;10586625;28;19932;-77
2022/09/26 17:18:05;;;;;;;;;;;;;;;17.05;82.92;99425.56;10587708;28;19927;-78
2022/09/26 17:23:11;;;;;;;;;;;;;;;17.04;83.32;99429.09;10586579;28;20023;-75
2022/09/26 17:28:36;;;;;;;;;;;;;;;17.00;84.16;99435.41;10584576;28;20688;-76
2022/09/26 17:33:40;;;;;;;;;;;;;;;17.00;84.59;99438.03;10562969;28;20260;-78
2022/09/26 17:38:47;;;;;;;;;;;;;;;16.92;85.02;99445.47;10542375;28;19924;-78
2022/09/26 17:43:57;;;;;;;;;;;;;;;16.89;86.14;99449.09;10542216;28;19932;-77
2022/09/26 17:49:03;;;;;;;;;;;;;;;16.86;86.51;99438.75;10542451;28;19938;-77
2022/09/26 17:54:13;;;;;;;;;;;;;;;16.80;87.37;99444.31;10542022;28;19938;-77
2022/09/26 17:59:21;;;;;;;;;;;;;;;16.77;87.80;99439.22;10541575;28;19924;-76
2022/09/26 18:04:25;;;;;;;;;;;;;;;16.65;89.08;99449.47;10542493;28;19978;-71
2022/09/26 18:09:32;;;;;;;;;;;;;;;16.60;89.78;99443.59;10541437;28;20479;-70
2022/09/26 18:14:35;;;;;;;;;;;;;;;16.58;89.55;99440.19;10541053;28;19970;-71
2022/09/26 18:19:38;;;;;;;;;;;;;;;16.51;90.46;99446.66;10541088;28;19951;-70
2022/09/26 18:24:44;;;;;;;;;;;;;;;16.49;90.57;99444.13;10540627;28;19924;-72
2022/09/26 18:29:47;;;;;;;;;;;;;;;16.41;89.77;99458.47;10540366;28;19924;-69
2022/09/26 18:34:51;;;;;;;;;;;;;;;16.20;88.73;99453.31;10571647;28;19935;-80
2022/09/26 18:39:55;;;;;;;;;;;;;;;16.12;87.23;99460.69;10580431;28;20327;-79
2022/09/26 18:45:07;;;;;;;;;;;;;;;16.15;85.61;99457.94;10581138;28;19928;-80
2022/09/26 18:50:18;;;;;;;;;;;;;;;16.09;84.50;99460.84;10581302;28;20014;-79
2022/09/26 19:00:44;;;;;;;;;;;;;;;16.09;83.56;99463.47;10581806;28;20023;-77
2022/09/26 19:05:48;;;;;;;;;;;;;;;15.87;84.42;99457.53;10581524;28;19963;-78
2022/09/26 19:10:53;;;;;;;;;;;;;;;15.64;87.41;99462.09;10539803;28;19935;-76
2022/09/26 19:15:56;;;;;;;;;;;;;;;15.39;91.95;99451.88;10538423;28;19928;-77
2022/09/26 19:21:00;;;;;;;;;;;;;;;15.37;94.53;99442.38;10539367;28;20019;-76
2022/09/26 19:26:05;;;;;;;;;;;;;;;15.14;98.33;99448.59;10538024;28;19997;-78
2022/09/26 19:31:09;;;;;;;;;;;;;;;15.13;100.00;99449.53;10538028;28;19928;-77
2022/09/26 19:36:14;;;;;;;;;;;;;;;15.19;100.00;99445.78;10538455;28;19924;-78
2022/09/26 19:41:18;;;;;;;;;;;;;;;15.23;100.00;99445.59;10537766;28;19934;-77
2022/09/26 19:46:25;;;;;;;;;;;;;;;15.27;100.00;99456.78;10538120;28;19971;-77
2022/09/26 19:51:29;;;;;;;;;;;;;;;15.21;100.00;99446.56;10537288;28;19932;-79
2022/09/26 19:56:34;;;;;;;;;;;;;;;15.20;100.00;99444.88;10537173;28;20031;-75
2022/09/26 20:01:38;;;;;;;;;;;;;;;15.11;100.00;99438.28;10537070;28;19975;-76
2022/09/26 20:06:41;;;;;;;;;;;;;;;15.17;100.00;99438.00;10515809;28;19985;-77
2022/09/26 20:11:45;;;;;;;;;;;;;;;15.29;100.00;99432.25;10497314;28;19998;-76
2022/09/26 20:16:50;;;;;;;;;;;;;;;15.33;100.00;99440.81;10496659;28;19933;-77
2022/09/26 20:21:54;;;;;;;;;;;;;;;15.32;100.00;99428.66;10496138;28;19924;-77
2022/09/26 20:27:00;;;;;;;;;;;;;;;15.23;100.00;99429.91;10494931;28;20082;-77
2022/09/26 20:32:06;;;;;;;;;;;;;;;15.24;100.00;99425.53;10510436;28;19992;-78
2022/09/26 20:37:14;;;;;;;;;;;;;;;15.20;100.00;99427.44;10578867;28;20400;-77
2022/09/26 20:42:18;;;;;;;;;;;;;;;15.19;100.00;99417.88;10578139;28;19953;-77
2022/09/26 20:47:22;;;;;;;;;;;;;;;15.18;100.00;99413.59;10578745;28;19988;-78
2022/09/26 20:52:26;;;;;;;;;;;;;;;15.10;100.00;99415.66;10578208;28;20080;-79
2022/09/26 20:57:30;;;;;;;;;;;;;;;15.09;100.00;99413.97;10578143;28;19923;-77
2022/09/26 21:02:36;;;;;;;;;;;;;;;15.07;100.00;99400.13;10578738;28;19928;-77
2022/09/26 21:07:39;;;;;;;;;;;;;;;14.98;100.00;99410.97;10545768;28;19996;-78
2022/09/26 21:12:43;;;;;;;;;;;;;;;14.87;100.00;99398.38;10543370;28;19932;-76
2022/09/26 21:17:46;;;;;;;;;;;;;;;14.76;100.00;99405.81;10542968;28;19993;-77
2022/09/26 21:22:49;;;;;;;;;;;;;;;14.76;100.00;99394.50;10543198;28;20028;-75
2022/09/26 21:27:56;;;;;;;;;;;;;;;14.76;100.00;99395.38;10542605;28;19928;-76
2022/09/26 21:32:59;;;;;;;;;;;;;;;14.75;100.00;99395.44;10543278;28;19928;-75
2022/09/26 21:38:02;;;;;;;;;;;;;;;14.64;100.00;99377.59;10545736;28;19981;-79
2022/09/26 21:43:08;;;;;;;;;;;;;;;14.61;100.00;99376.88;10586144;28;20382;-75
2022/09/26 21:48:12;;;;;;;;;;;;;;;14.62;100.00;99382.03;10586898;28;20344;-76
2022/09/26 21:53:19;;;;;;;;;;;;;;;14.56;100.00;99390.16;10567846;28;20348;-77
2022/09/26 21:58:25;;;;;;;;;;;;;;;14.64;100.00;99384.59;10584360;28;19931;-77
2022/09/26 22:03:28;;;;;;;;;;;;;;;14.66;100.00;99374.91;10584313;28;19927;-75
2022/09/26 22:08:31;;;;;;;;;;;;;;;14.60;100.00;99376.03;10583532;28;20388;-76
2022/09/26 22:13:36;;;;;;;;;;;;;;;14.62;100.00;99374.19;10582990;28;19952;-78
2022/09/26 22:18:40;;;;;;;;;;;;;;;14.70;100.00;99376.50;10583338;28;19928;-77
2022/09/26 22:23:43;;;;;;;;;;;;;;;14.53;100.00;99368.53;10583148;28;19931;-77
2022/09/26 22:28:48;;;;;;;;;;;;;;;14.51;100.00;99365.13;10582714;28;20678;-75
2022/09/26 22:33:50;;;;;;;;;;;;;;;14.53;100.00;99368.53;10559714;28;20275;-77
2022/09/26 22:38:54;;;;;;;;;;;;;;;14.58;100.00;99366.56;10540739;28;19924;-79
2022/09/26 22:43:59;;;;;;;;;;;;;;;14.61;100.00;99361.22;10540980;28;20007;-76
2022/09/26 22:49:02;;;;;;;;;;;;;;;14.54;100.00;99351.94;10540623;28;19967;-76
2022/09/26 22:54:05;;;;;;;;;;;;;;;14.49;100.00;99351.28;10539948;28;20299;-80
2022/09/26 22:59:10;;;;;;;;;;;;;;;14.57;100.00;99341.34;10541100;28;20335;-78
2022/09/26 23:04:13;;;;;;;;;;;;;;;14.58;100.00;99333.44;10539910;28;19931;-75
2022/09/26 23:09:16;;;;;;;;;;;;;;;14.60;100.00;99333.41;10525064;28;20015;-76
2022/09/26 23:14:20;;;;;;;;;;;;;;;14.52;100.00;99335.47;10497156;28;20015;-76
2022/09/26 23:19:23;;;;;;;;;;;;;;;14.53;100.00;99339.81;10496825;28;19928;-76
2022/09/26 23:24:27;;;;;;;;;;;;;;;14.52;100.00;99325.91;10496645;28;20346;-68
2022/09/26 23:29:32;;;;;;;;;;;;;;;14.44;100.00;99327.13;10495431;28;19940;-68
2022/09/26 23:34:35;;;;;;;;;;;;;;;14.40;100.00;99331.63;10495854;28;20464;-71
2022/09/26 23:39:37;;;;;;;;;;;;;;;14.35;100.00;99317.06;10545538;28;19924;-68
2022/09/26 23:44:42;;;;;;;;;;;;;;;14.34;100.00;99318.00;10579705;28;19938;-69
2022/09/26 23:49:44;;;;;;;;;;;;;;;14.30;100.00;99314.66;10579482;28;20255;-70
2022/09/26 23:54:47;;;;;;;;;;;;;;;14.40;100.00;99317.72;10579317;28;19985;-76
2022/09/26 23:59:52;;;;;;;;;;;;;;;14.43;100.00;99320.19;10579297;28;19931;-75
